Terminal Aerodrome Forecast
Issued by NWS

Home | Current Version | Previous Version | Text Only | Print | Product List | Glossary On
Versions: 1 2 3 4 5 6 7 8 9 10 11 12 13 14 15 16 17 18 19
110
FTUS41 KBGM 132007 AAB
TAFELM
TAF AMD
KELM 132007Z 1320/1418 32012G25KT P6SM BKN050
      TEMPO 1320/1322 5SM BLSN
     FM140300 31010KT P6SM BKN050
     FM141000 29006KT P6SM SCT050=

USA.gov is the U.S. government's official web portal to all federal, state and local government web resources and services.